Time,TemperatureF,DewpointF,PressureIn,WindDirection,WindDirectionDegrees,WindSpeedMPH,WindSpeedGustMPH,Humidity,HourlyPrecipIn,Conditions,Clouds,dailyrainin,SoftwareType,DateUTC
2013-06-03 00:02:00,60.8,57.2,30.23,SE,135,0.0,0.0,88,0.00,,,0.00,meteobridge,2013-06-03 06:02:00,
2013-06-03 00:08:00,61.7,58.5,30.22,East,90,0.7,0.7,89,0.00,,,0.00,meteobridge,2013-06-03 06:08:00,
2013-06-03 00:15:00,61.7,58.8,30.22,South,180,0.0,0.0,90,0.00,,,0.00,meteobridge,2013-06-03 06:15:00,
2013-06-03 00:21:00,62.4,59.7,30.22,SE,135,0.0,0.7,91,0.00,,,0.00,meteobridge,2013-06-03 06:21:00,
2013-06-03 00:27:00,63.1,60.4,30.22,SE,135,2.2,6.0,91,0.00,,,0.00,meteobridge,2013-06-03 06:27:00,
2013-06-03 00:34:00,62.6,59.5,30.22,East,90,0.0,0.0,90,0.00,,,0.00,meteobridge,2013-06-03 06:34:00,
2013-06-03 00:40:00,61.3,57.7,30.22,SE,135,2.2,2.2,88,0.00,,,0.00,meteobridge,2013-06-03 06:40:00,
2013-06-03 00:46:00,60.6,57.0,30.22,South,180,0.0,2.2,88,0.00,,,0.00,meteobridge,2013-06-03 06:46:00,
2013-06-03 00:53:00,60.8,56.8,30.22,North,0,0.0,0.0,87,0.00,,,0.00,meteobridge,2013-06-03 06:53:00,
2013-06-03 00:59:00,60.8,56.8,30.21,East,90,0.0,0.0,87,0.00,,,0.00,meteobridge,2013-06-03 06:59:00,
2013-06-03 01:05:00,60.8,56.8,30.21,NE,45,0.0,0.0,87,0.00,,,0.00,meteobridge,2013-06-03 07:05:00,
2013-06-03 01:12:00,61.0,57.0,30.21,East,90,0.0,0.7,87,0.00,,,0.00,meteobridge,2013-06-03 07:12:00,
2013-06-03 01:18:00,60.8,56.8,30.21,East,90,0.0,0.0,87,0.00,,,0.00,meteobridge,2013-06-03 07:18:00,
2013-06-03 01:24:00,60.8,56.8,30.21,North,0,0.0,0.0,87,0.00,,,0.00,meteobridge,2013-06-03 07:24:00,
2013-06-03 01:33:00,60.6,57.0,30.20,SE,135,0.0,0.7,88,0.00,,,0.00,meteobridge,2013-06-03 07:33:00,
2013-06-03 01:39:00,60.8,56.8,30.20,NE,45,0.0,0.0,87,0.00,,,0.00,meteobridge,2013-06-03 07:39:00,
2013-06-03 01:46:00,60.6,57.0,30.20,East,90,0.7,1.6,88,0.00,,,0.00,meteobridge,2013-06-03 07:46:00,
2013-06-03 01:52:00,60.4,56.5,30.20,SE,135,0.0,2.2,87,0.00,,,0.00,meteobridge,2013-06-03 07:52:00,
2013-06-03 01:58:00,60.4,56.5,30.20,East,90,1.6,2.2,87,0.00,,,0.00,meteobridge,2013-06-03 07:58:00,
2013-06-03 02:05:00,60.3,56.3,30.20,SE,135,0.0,2.2,87,0.00,,,0.00,meteobridge,2013-06-03 08:05:00,
2013-06-03 02:11:00,60.3,56.3,30.19,East,90,0.7,1.6,87,0.00,,,0.00,meteobridge,2013-06-03 08:11:00,
2013-06-03 02:17:00,60.3,56.3,30.19,NE,45,1.6,1.6,87,0.00,,,0.00,meteobridge,2013-06-03 08:17:00,
2013-06-03 02:24:00,60.1,56.1,30.19,NE,45,1.6,1.6,87,0.00,,,0.00,meteobridge,2013-06-03 08:24:00,
2013-06-03 02:30:00,59.9,55.9,30.19,East,90,0.0,1.6,87,0.00,,,0.00,meteobridge,2013-06-03 08:30:00,
2013-06-03 02:36:00,59.9,55.9,30.19,NE,45,0.0,0.0,87,0.00,,,0.00,meteobridge,2013-06-03 08:36:00,
2013-06-03 02:43:00,60.1,56.5,30.19,NE,45,1.6,2.2,88,0.00,,,0.00,meteobridge,2013-06-03 08:43:00,
2013-06-03 02:49:00,59.9,55.9,30.19,NE,45,1.6,2.2,87,0.00,,,0.00,meteobridge,2013-06-03 08:49:00,
2013-06-03 02:55:00,59.9,55.9,30.19,East,90,1.6,2.2,87,0.00,,,0.00,meteobridge,2013-06-03 08:55:00,
2013-06-03 03:02:00,59.7,55.8,30.19,East,90,0.7,1.6,87,0.00,,,0.00,meteobridge,2013-06-03 09:02:00,
2013-06-03 03:08:00,59.9,55.9,30.19,NE,45,1.6,1.6,87,0.00,,,0.00,meteobridge,2013-06-03 09:08:00,
2013-06-03 03:14:00,59.7,55.8,30.19,North,0,1.6,1.6,87,0.00,,,0.00,meteobridge,2013-06-03 09:14:00,
2013-06-03 03:21:00,59.9,55.9,30.19,East,90,2.2,2.2,87,0.00,,,0.00,meteobridge,2013-06-03 09:21:00,
2013-06-03 03:27:00,60.1,56.1,30.19,NE,45,1.6,1.6,87,0.00,,,0.00,meteobridge,2013-06-03 09:27:00,
2013-06-03 03:33:00,60.1,56.1,30.19,East,90,0.7,1.6,87,0.00,,,0.00,meteobridge,2013-06-03 09:33:00,
2013-06-03 03:40:00,59.9,55.8,30.19,North,0,0.7,0.7,86,0.00,,,0.00,meteobridge,2013-06-03 09:40:00,
2013-06-03 03:46:00,59.5,55.4,30.19,East,90,4.5,4.5,86,0.00,,,0.00,meteobridge,2013-06-03 09:46:00,
2013-06-03 03:52:00,59.5,55.4,30.19,East,90,0.7,0.7,86,0.00,,,0.00,meteobridge,2013-06-03 09:52:00,
2013-06-03 03:59:00,59.5,55.4,30.19,East,90,0.0,0.7,86,0.00,,,0.00,meteobridge,2013-06-03 09:59:00,
2013-06-03 04:05:00,59.5,55.6,30.19,SE,135,0.7,0.7,87,0.00,,,0.00,meteobridge,2013-06-03 10:05:00,
2013-06-03 04:11:00,59.5,55.6,30.19,SE,135,1.6,3.1,87,0.00,,,0.00,meteobridge,2013-06-03 10:11:00,
2013-06-03 04:18:00,59.4,55.4,30.19,South,180,0.0,0.0,87,0.00,,,0.00,meteobridge,2013-06-03 10:18:00,
2013-06-03 04:24:00,59.2,55.4,30.19,NE,45,2.2,2.2,87,0.00,,,0.00,meteobridge,2013-06-03 10:24:00,
2013-06-03 04:30:00,59.4,55.4,30.19,East,90,3.1,3.1,87,0.00,,,0.00,meteobridge,2013-06-03 10:30:00,
2013-06-03 04:37:00,59.2,55.0,30.19,East,90,1.6,1.6,86,0.00,,,0.00,meteobridge,2013-06-03 10:37:00,
2013-06-03 04:43:00,59.0,54.9,30.18,NE,45,1.6,3.1,86,0.00,,,0.00,meteobridge,2013-06-03 10:43:00,
2013-06-03 04:49:00,59.0,54.9,30.19,SE,135,1.6,1.6,86,0.00,,,0.00,meteobridge,2013-06-03 10:49:00,
2013-06-03 04:56:00,59.4,55.2,30.19,East,90,1.6,1.6,86,0.00,,,0.00,meteobridge,2013-06-03 10:56:00,
2013-06-03 05:02:00,59.2,55.0,30.19,SE,135,0.0,1.6,86,0.00,,,0.00,meteobridge,2013-06-03 11:02:00,
2013-06-03 05:09:00,59.0,54.9,30.19,East,90,0.0,1.6,86,0.00,,,0.00,meteobridge,2013-06-03 11:09:00,
2013-06-03 05:15:00,59.2,55.0,30.19,SE,135,0.0,1.6,86,0.00,,,0.00,meteobridge,2013-06-03 11:15:00,
2013-06-03 05:21:00,59.4,55.2,30.19,SE,135,0.0,0.0,86,0.00,,,0.00,meteobridge,2013-06-03 11:21:00,
2013-06-03 05:28:00,59.2,55.0,30.19,North,0,1.6,1.6,86,0.00,,,0.00,meteobridge,2013-06-03 11:28:00,
2013-06-03 05:34:00,59.2,55.0,30.19,East,90,1.6,2.2,86,0.00,,,0.00,meteobridge,2013-06-03 11:34:00,
2013-06-03 05:42:00,59.4,55.2,30.20,North,0,3.1,3.1,86,0.00,,,0.00,meteobridge,2013-06-03 11:42:00,
2013-06-03 05:51:00,59.5,55.0,30.20,NE,45,0.7,2.2,85,0.00,,,0.00,meteobridge,2013-06-03 11:51:00,
2013-06-03 05:57:00,59.7,55.6,30.20,East,90,0.0,0.0,86,0.00,,,0.00,meteobridge,2013-06-03 11:57:00,
2013-06-03 06:04:00,60.3,56.3,30.20,East,90,2.2,2.2,87,0.00,,,0.00,meteobridge,2013-06-03 12:04:00,
2013-06-03 06:10:00,60.1,56.1,30.20,SE,135,0.7,3.1,87,0.00,,,0.00,meteobridge,2013-06-03 12:10:00,
2013-06-03 06:16:00,60.4,56.8,30.20,SE,135,0.0,3.1,88,0.00,,,0.00,meteobridge,2013-06-03 12:16:00,
2013-06-03 06:23:00,60.8,56.7,30.20,South,180,0.0,0.0,86,0.00,,,0.00,meteobridge,2013-06-03 12:23:00,
2013-06-03 06:29:00,61.5,56.7,30.21,SE,135,0.0,1.6,84,0.00,,,0.00,meteobridge,2013-06-03 12:29:00,
2013-06-03 06:35:00,62.2,56.7,30.21,SE,135,1.6,1.6,82,0.00,,,0.00,meteobridge,2013-06-03 12:35:00,
2013-06-03 06:42:00,62.6,56.7,30.22,SE,135,1.6,4.5,81,0.00,,,0.00,meteobridge,2013-06-03 12:42:00,
2013-06-03 06:48:00,62.6,57.0,30.21,SE,135,1.6,1.6,82,0.00,,,0.00,meteobridge,2013-06-03 12:48:00,
2013-06-03 06:54:00,63.9,58.3,30.22,South,180,0.7,0.7,82,0.00,,,0.00,meteobridge,2013-06-03 12:54:00,
2013-06-03 07:01:00,63.3,57.7,30.22,South,180,0.7,3.1,82,0.00,,,0.00,meteobridge,2013-06-03 13:01:00,
2013-06-03 07:07:00,67.5,61.7,30.22,South,180,0.0,0.0,82,0.00,,,0.00,meteobridge,2013-06-03 13:07:00,
2013-06-03 07:13:00,70.0,61.7,30.22,South,180,0.0,0.0,75,0.00,,,0.00,meteobridge,2013-06-03 13:13:00,
2013-06-03 07:20:00,71.2,61.7,30.22,West,270,0.0,0.0,72,0.00,,,0.00,meteobridge,2013-06-03 13:20:00,
2013-06-03 07:28:00,72.0,60.8,30.22,SW,225,0.0,0.0,68,0.00,,,0.00,meteobridge,2013-06-03 13:28:00,
2013-06-03 07:34:00,71.8,61.0,30.22,West,270,0.0,0.0,69,0.00,,,0.00,meteobridge,2013-06-03 13:34:00,
2013-06-03 07:41:00,72.9,62.1,30.22,South,180,1.6,1.6,69,0.00,,,0.00,meteobridge,2013-06-03 13:41:00,
2013-06-03 07:47:00,73.0,61.9,30.22,SE,135,1.6,1.6,68,0.00,,,0.00,meteobridge,2013-06-03 13:47:00,
2013-06-03 07:53:00,74.7,62.6,30.23,South,180,0.7,2.2,66,0.00,,,0.00,meteobridge,2013-06-03 13:53:00,
2013-06-03 08:00:00,71.1,59.9,30.23,SE,135,6.0,9.8,68,0.00,,,0.00,meteobridge,2013-06-03 14:00:00,
2013-06-03 08:06:00,71.4,61.5,30.23,South,180,4.5,4.5,71,0.00,,,0.00,meteobridge,2013-06-03 14:06:00,
2013-06-03 08:13:00,71.6,61.7,30.23,South,180,4.5,4.5,71,0.00,,,0.00,meteobridge,2013-06-03 14:13:00,
2013-06-03 08:19:00,71.6,61.3,30.23,South,180,3.1,4.5,70,0.00,,,0.00,meteobridge,2013-06-03 14:19:00,
2013-06-03 08:25:00,72.0,61.7,30.23,SE,135,3.8,4.5,70,0.00,,,0.00,meteobridge,2013-06-03 14:25:00,
2013-06-03 08:32:00,71.6,60.8,30.23,SE,135,6.9,7.6,69,0.00,,,0.00,meteobridge,2013-06-03 14:32:00,
2013-06-03 08:38:00,73.0,61.9,30.23,South,180,4.5,5.4,68,0.00,,,0.00,meteobridge,2013-06-03 14:38:00,
2013-06-03 08:44:00,73.8,62.1,30.24,South,180,6.0,6.0,67,0.00,,,0.00,meteobridge,2013-06-03 14:44:00,
2013-06-03 08:51:00,73.8,61.7,30.24,SE,135,3.1,3.1,66,0.00,,,0.00,meteobridge,2013-06-03 14:51:00,
2013-06-03 08:57:00,75.9,62.8,30.24,South,180,2.2,3.1,64,0.00,,,0.00,meteobridge,2013-06-03 14:57:00,
2013-06-03 09:03:00,76.1,63.0,30.24,South,180,5.4,5.4,64,0.00,,,0.00,meteobridge,2013-06-03 15:03:00,
2013-06-03 09:10:00,77.0,62.6,30.24,West,270,2.2,2.2,61,0.00,,,0.00,meteobridge,2013-06-03 15:10:00,
2013-06-03 09:16:00,76.3,62.2,30.24,SE,135,0.0,2.2,62,0.00,,,0.00,meteobridge,2013-06-03 15:16:00,
2013-06-03 09:22:00,78.1,63.1,30.24,West,270,0.0,0.0,60,0.00,,,0.00,meteobridge,2013-06-03 15:22:00,
2013-06-03 09:29:00,77.0,61.2,30.24,South,180,2.2,3.8,58,0.00,,,0.00,meteobridge,2013-06-03 15:29:00,
2013-06-03 09:35:00,78.8,61.7,30.24,West,270,2.2,2.2,56,0.00,,,0.00,meteobridge,2013-06-03 15:35:00,
2013-06-03 09:41:00,77.5,60.6,30.24,SW,225,0.0,3.1,56,0.00,,,0.00,meteobridge,2013-06-03 15:41:00,
2013-06-03 09:48:00,76.6,62.2,30.24,West,270,3.1,3.8,61,0.00,,,0.00,meteobridge,2013-06-03 15:48:00,
2013-06-03 09:54:00,75.6,61.2,30.24,SW,225,2.2,5.4,61,0.00,,,0.00,meteobridge,2013-06-03 15:54:00,
2013-06-03 10:00:00,77.2,61.7,30.24,West,270,3.8,3.8,59,0.00,,,0.00,meteobridge,2013-06-03 16:00:00,
2013-06-03 10:07:00,78.1,62.6,30.24,East,90,0.7,2.2,59,0.00,,,0.00,meteobridge,2013-06-03 16:07:00,
2013-06-03 10:13:00,79.5,61.3,30.24,West,270,3.8,3.8,54,0.00,,,0.00,meteobridge,2013-06-03 16:13:00,
2013-06-03 10:19:00,81.0,61.7,30.24,South,180,0.7,3.8,52,0.00,,,0.00,meteobridge,2013-06-03 16:19:00,
2013-06-03 10:26:00,81.0,61.7,30.24,NW,315,4.5,5.4,52,0.00,,,0.00,meteobridge,2013-06-03 16:26:00,
2013-06-03 10:32:00,77.7,59.7,30.24,West,270,4.5,6.9,54,0.00,,,0.00,meteobridge,2013-06-03 16:32:00,
2013-06-03 10:38:00,77.5,61.5,30.24,West,270,1.6,3.1,58,0.00,,,0.00,meteobridge,2013-06-03 16:38:00,
2013-06-03 10:45:00,77.9,61.5,30.23,NW,315,4.5,9.2,57,0.00,,,0.00,meteobridge,2013-06-03 16:45:00,
2013-06-03 10:51:00,79.7,63.7,30.23,North,0,0.7,3.1,58,0.00,,,0.00,meteobridge,2013-06-03 16:51:00,
2013-06-03 10:57:00,81.3,63.7,30.23,NE,45,2.2,3.8,55,0.00,,,0.00,meteobridge,2013-06-03 16:57:00,
2013-06-03 11:04:00,79.7,62.1,30.23,North,0,1.6,6.9,55,0.00,,,0.00,meteobridge,2013-06-03 17:04:00,
2013-06-03 11:10:00,79.7,62.1,30.23,NW,315,5.4,6.9,55,0.00,,,0.00,meteobridge,2013-06-03 17:10:00,
2013-06-03 11:16:00,79.5,61.9,30.23,North,0,3.8,3.8,55,0.00,,,0.00,meteobridge,2013-06-03 17:16:00,
2013-06-03 11:23:00,78.4,62.4,30.23,West,270,3.8,4.5,58,0.00,,,0.00,meteobridge,2013-06-03 17:23:00,
2013-06-03 11:29:00,79.5,63.5,30.22,East,90,1.6,3.1,58,0.00,,,0.00,meteobridge,2013-06-03 17:29:00,
2013-06-03 11:36:00,77.2,60.8,30.22,North,0,4.5,5.4,57,0.00,,,0.00,meteobridge,2013-06-03 17:36:00,
2013-06-03 11:42:00,78.1,62.1,30.22,South,180,0.0,1.6,58,0.00,,,0.00,meteobridge,2013-06-03 17:42:00,
2013-06-03 11:48:00,70.5,61.0,30.22,SE,135,6.0,11.4,72,0.11,,,0.11,meteobridge,2013-06-03 17:48:00,
2013-06-03 11:55:00,69.6,63.5,30.22,NE,45,0.7,0.7,81,0.25,,,0.25,meteobridge,2013-06-03 17:55:00,
2013-06-03 12:03:00,69.8,64.0,30.22,NE,45,0.7,0.7,82,0.45,,,0.45,meteobridge,2013-06-03 18:03:00,
2013-06-03 12:09:00,70.2,64.4,30.22,South,180,1.6,1.6,82,0.52,,,0.52,meteobridge,2013-06-03 18:09:00,
2013-06-03 12:16:00,68.7,63.0,30.21,NW,315,2.2,3.8,82,0.57,,,0.57,meteobridge,2013-06-03 18:16:00,
2013-06-03 12:22:00,69.8,64.0,30.21,South,180,0.0,0.0,82,0.57,,,0.57,meteobridge,2013-06-03 18:22:00,
2013-06-03 12:28:00,69.4,64.0,30.21,South,180,2.2,2.2,83,0.57,,,0.57,meteobridge,2013-06-03 18:28:00,
2013-06-03 12:35:00,68.0,62.6,30.21,South,180,0.0,3.1,83,0.57,,,0.57,meteobridge,2013-06-03 18:35:00,
2013-06-03 12:41:00,68.5,63.5,30.21,South,180,0.0,0.0,84,0.57,,,0.57,meteobridge,2013-06-03 18:41:00,
2013-06-03 12:50:00,67.8,63.5,30.21,West,270,2.2,3.1,86,0.40,,,0.57,meteobridge,2013-06-03 18:50:00,
2013-06-03 12:58:00,67.6,63.7,30.21,South,180,0.0,1.6,87,0.19,,,0.58,meteobridge,2013-06-03 18:58:00,
2013-06-03 13:04:00,68.0,63.7,30.21,South,180,0.0,0.0,86,0.11,,,0.58,meteobridge,2013-06-03 19:04:00,
2013-06-03 13:11:00,68.2,63.5,30.21,SW,225,0.0,0.0,85,0.04,,,0.58,meteobridge,2013-06-03 19:11:00,
2013-06-03 13:18:00,68.2,63.5,30.21,SE,135,0.0,0.0,85,0.00,,,0.59,meteobridge,2013-06-03 19:18:00,
2013-06-03 13:24:00,68.5,63.9,30.20,NW,315,6.0,6.0,85,0.02,,,0.61,meteobridge,2013-06-03 19:24:00,
2013-06-03 13:30:00,67.6,63.3,30.21,West,270,3.1,3.1,86,0.02,,,0.61,meteobridge,2013-06-03 19:30:00,
2013-06-03 13:37:00,69.1,64.8,30.20,East,90,0.0,0.0,86,0.02,,,0.61,meteobridge,2013-06-03 19:37:00,
2013-06-03 13:43:00,70.5,65.1,30.20,South,180,0.0,0.0,83,0.02,,,0.61,meteobridge,2013-06-03 19:43:00,
2013-06-03 13:49:00,71.2,65.8,30.20,South,180,0.0,0.0,83,0.02,,,0.61,meteobridge,2013-06-03 19:49:00,
2013-06-03 13:56:00,70.2,63.7,30.19,SW,225,3.8,3.8,80,0.02,,,0.61,meteobridge,2013-06-03 19:56:00,
2013-06-03 14:02:00,71.4,64.9,30.19,North,0,1.6,1.6,80,0.02,,,0.61,meteobridge,2013-06-03 20:02:00,
2013-06-03 14:09:00,73.0,65.8,30.19,West,270,0.7,0.7,78,0.02,,,0.61,meteobridge,2013-06-03 20:09:00,
2013-06-03 14:15:00,72.1,64.6,30.18,West,270,3.1,3.1,77,0.02,,,0.61,meteobridge,2013-06-03 20:15:00,
2013-06-03 14:23:00,71.1,64.2,30.19,North,0,3.8,5.4,79,0.00,,,0.61,meteobridge,2013-06-03 20:23:00,
2013-06-03 14:30:00,71.1,64.6,30.19,West,270,1.6,4.5,80,0.00,,,0.61,meteobridge,2013-06-03 20:30:00,
2013-06-03 14:38:00,71.2,65.1,30.18,West,270,3.1,3.1,81,0.00,,,0.61,meteobridge,2013-06-03 20:38:00,
2013-06-03 14:44:00,70.3,64.2,30.18,West,270,3.1,4.5,81,0.00,,,0.61,meteobridge,2013-06-03 20:44:00,
2013-06-03 14:53:00,70.0,63.9,30.18,West,270,3.1,6.0,81,0.00,,,0.61,meteobridge,2013-06-03 20:53:00,
2013-06-03 14:59:00,71.6,65.1,30.18,North,0,3.1,3.8,80,0.00,,,0.61,meteobridge,2013-06-03 20:59:00,
2013-06-03 15:06:00,71.1,64.9,30.18,West,270,3.8,3.8,81,0.00,,,0.61,meteobridge,2013-06-03 21:06:00,
2013-06-03 15:12:00,70.5,64.4,30.18,North,0,3.1,3.1,81,0.00,,,0.61,meteobridge,2013-06-03 21:12:00,
2013-06-03 15:18:00,69.8,63.7,30.18,NW,315,4.5,4.5,81,0.00,,,0.61,meteobridge,2013-06-03 21:18:00,
2013-06-03 15:25:00,69.8,64.0,30.18,NW,315,3.1,3.1,82,0.00,,,0.61,meteobridge,2013-06-03 21:25:00,
2013-06-03 15:33:00,69.4,64.0,30.18,South,180,2.2,3.8,83,0.00,,,0.61,meteobridge,2013-06-03 21:33:00,
2013-06-03 15:39:00,70.0,64.6,30.18,South,180,0.0,0.0,83,0.00,,,0.61,meteobridge,2013-06-03 21:39:00,
2013-06-03 15:46:00,70.2,64.8,30.18,South,180,0.0,0.0,83,0.01,,,0.63,meteobridge,2013-06-03 21:46:00,
2013-06-03 15:52:00,70.0,64.6,30.18,South,180,0.0,0.0,83,0.01,,,0.63,meteobridge,2013-06-03 21:52:00,
2013-06-03 16:01:00,69.8,64.4,30.17,West,270,0.0,0.0,83,0.02,,,0.64,meteobridge,2013-06-03 22:01:00,
2013-06-03 16:07:00,69.4,64.4,30.18,South,180,0.0,0.0,84,0.02,,,0.64,meteobridge,2013-06-03 22:07:00,
2013-06-03 16:13:00,69.3,64.2,30.18,West,270,0.0,0.0,84,0.02,,,0.64,meteobridge,2013-06-03 22:13:00,
2013-06-03 16:20:00,69.3,64.6,30.18,North,0,0.0,0.0,85,0.02,,,0.64,meteobridge,2013-06-03 22:20:00,
2013-06-03 16:26:00,69.4,64.8,30.18,South,180,0.0,0.0,85,0.02,,,0.64,meteobridge,2013-06-03 22:26:00,
2013-06-03 16:32:00,68.7,64.4,30.18,South,180,0.0,0.0,86,0.02,,,0.64,meteobridge,2013-06-03 22:32:00,
2013-06-03 16:39:00,68.5,64.2,30.18,South,180,0.0,0.0,86,0.02,,,0.64,meteobridge,2013-06-03 22:39:00,
2013-06-03 16:45:00,68.5,64.2,30.18,South,180,0.0,1.6,86,0.02,,,0.65,meteobridge,2013-06-03 22:45:00,
2013-06-03 16:51:00,68.7,64.8,30.18,NE,45,0.0,0.0,87,0.02,,,0.65,meteobridge,2013-06-03 22:51:00,
2013-06-03 16:58:00,68.5,64.2,30.18,South,180,0.0,0.0,86,0.02,,,0.65,meteobridge,2013-06-03 22:58:00,
2013-06-03 17:04:00,68.5,64.2,30.18,South,180,0.0,0.0,86,0.01,,,0.65,meteobridge,2013-06-03 23:04:00,
2013-06-03 17:10:00,68.2,63.9,30.19,South,180,0.0,0.0,86,0.01,,,0.65,meteobridge,2013-06-03 23:10:00,
2013-06-03 17:17:00,68.2,64.2,30.19,South,180,0.0,0.0,87,0.01,,,0.65,meteobridge,2013-06-03 23:17:00,
2013-06-03 17:23:00,67.8,64.2,30.19,North,0,0.0,0.0,88,0.01,,,0.65,meteobridge,2013-06-03 23:23:00,
2013-06-03 17:29:00,67.6,64.0,30.19,South,180,0.7,1.6,88,0.01,,,0.65,meteobridge,2013-06-03 23:29:00,
2013-06-03 17:36:00,67.3,63.7,30.19,West,270,0.0,0.0,88,0.01,,,0.65,meteobridge,2013-06-03 23:36:00,
2013-06-03 17:42:00,67.3,63.7,30.19,West,270,0.0,0.0,88,0.01,,,0.65,meteobridge,2013-06-03 23:42:00,
2013-06-03 17:48:00,67.1,63.7,30.20,West,270,0.0,0.0,89,0.00,,,0.65,meteobridge,2013-06-03 23:48:00,
2013-06-03 17:55:00,66.7,63.3,30.20,West,270,3.1,3.1,89,0.00,,,0.65,meteobridge,2013-06-03 23:55:00,
2013-06-03 18:01:00,66.4,63.3,30.20,SW,225,1.6,2.2,90,0.00,,,0.65,meteobridge,2013-06-04 00:01:00,
2013-06-03 18:07:00,66.0,63.3,30.21,SW,225,0.0,1.6,91,0.00,,,0.65,meteobridge,2013-06-04 00:07:00,
2013-06-03 18:14:00,65.7,63.3,30.20,SW,225,0.0,2.2,92,0.00,,,0.65,meteobridge,2013-06-04 00:14:00,
2013-06-03 18:20:00,65.5,63.1,30.21,West,270,1.6,1.6,92,0.00,,,0.65,meteobridge,2013-06-04 00:20:00,
2013-06-03 18:26:00,65.5,63.3,30.21,NW,315,0.0,0.0,93,0.00,,,0.65,meteobridge,2013-06-04 00:26:00,
2013-06-03 18:35:00,65.8,63.7,30.21,SE,135,0.0,0.0,93,0.00,,,0.65,meteobridge,2013-06-04 00:35:00,
2013-06-03 18:41:00,65.8,63.7,30.21,South,180,0.0,0.0,93,0.00,,,0.65,meteobridge,2013-06-04 00:41:00,
2013-06-03 18:48:00,65.8,63.7,30.21,South,180,0.0,0.0,93,0.00,,,0.65,meteobridge,2013-06-04 00:48:00,
2013-06-03 18:54:00,66.2,63.5,30.21,North,0,0.0,0.0,91,0.00,,,0.65,meteobridge,2013-06-04 00:54:00,
2013-06-03 19:00:00,66.2,63.5,30.22,North,0,0.0,0.0,91,0.00,,,0.65,meteobridge,2013-06-04 01:00:00,
2013-06-03 19:07:00,66.2,63.5,30.22,South,180,0.0,0.0,91,0.00,,,0.65,meteobridge,2013-06-04 01:07:00,
2013-06-03 19:13:00,66.2,63.5,30.22,South,180,0.0,0.0,91,0.00,,,0.65,meteobridge,2013-06-04 01:13:00,
2013-06-03 19:19:00,65.8,63.1,30.22,SE,135,0.0,0.0,91,0.00,,,0.65,meteobridge,2013-06-04 01:19:00,
2013-06-03 19:26:00,65.7,63.0,30.22,NE,45,0.0,0.0,91,0.00,,,0.65,meteobridge,2013-06-04 01:26:00,
2013-06-03 19:32:00,65.5,62.8,30.22,East,90,0.0,0.0,91,0.00,,,0.65,meteobridge,2013-06-04 01:32:00,
2013-06-03 19:38:00,65.3,62.2,30.22,West,270,0.0,0.0,90,0.00,,,0.65,meteobridge,2013-06-04 01:38:00,
2013-06-03 19:51:00,64.9,62.2,30.23,South,180,0.0,0.0,91,0.00,,,0.65,meteobridge,2013-06-04 01:51:00,
2013-06-03 19:57:00,64.8,62.1,30.23,South,180,0.0,0.0,91,0.00,,,0.65,meteobridge,2013-06-04 01:57:00,
2013-06-03 20:04:00,64.8,62.1,30.23,East,90,0.0,2.2,91,0.00,,,0.65,meteobridge,2013-06-04 02:04:00,
2013-06-03 20:12:00,64.8,62.1,30.23,South,180,0.7,1.6,91,0.00,,,0.65,meteobridge,2013-06-04 02:12:00,
2013-06-03 20:19:00,64.6,61.5,30.24,South,180,0.0,0.0,90,0.00,,,0.65,meteobridge,2013-06-04 02:19:00,
2013-06-03 20:25:00,64.2,61.0,30.24,East,90,0.0,0.0,89,0.00,,,0.65,meteobridge,2013-06-04 02:25:00,
2013-06-03 20:33:00,63.7,60.1,30.24,SE,135,0.0,0.0,88,0.00,,,0.65,meteobridge,2013-06-04 02:33:00,
2013-06-03 20:40:00,63.5,59.9,30.24,East,90,0.0,0.0,88,0.00,,,0.65,meteobridge,2013-06-04 02:40:00,
2013-06-03 20:46:00,63.1,59.5,30.25,SE,135,0.0,0.7,88,0.00,,,0.65,meteobridge,2013-06-04 02:46:00,
2013-06-03 20:52:00,63.0,59.4,30.25,SE,135,0.7,0.7,88,0.00,,,0.65,meteobridge,2013-06-04 02:52:00,
2013-06-03 20:59:00,62.8,58.8,30.25,SE,135,1.6,1.6,87,0.00,,,0.65,meteobridge,2013-06-04 02:59:00,
2013-06-03 21:05:00,62.8,58.8,30.25,East,90,1.6,1.6,87,0.00,,,0.65,meteobridge,2013-06-04 03:05:00,
2013-06-03 21:14:00,62.4,58.5,30.25,East,90,1.6,1.6,87,0.00,,,0.65,meteobridge,2013-06-04 03:14:00,
2013-06-03 21:20:00,62.4,58.5,30.25,SE,135,0.0,0.0,87,0.00,,,0.65,meteobridge,2013-06-04 03:20:00,
2013-06-03 21:26:00,62.2,58.3,30.26,South,180,0.0,0.0,87,0.00,,,0.65,meteobridge,2013-06-04 03:26:00,
2013-06-03 21:33:00,62.4,58.8,30.26,SE,135,0.7,0.7,88,0.00,,,0.65,meteobridge,2013-06-04 03:33:00,
2013-06-03 21:39:00,62.1,58.1,30.26,North,0,0.0,0.7,87,0.00,,,0.65,meteobridge,2013-06-04 03:39:00,
2013-06-03 21:45:00,62.2,58.3,30.26,East,90,0.0,1.6,87,0.00,,,0.65,meteobridge,2013-06-04 03:45:00,
2013-06-03 21:52:00,62.2,58.3,30.25,SE,135,1.6,1.6,87,0.00,,,0.65,meteobridge,2013-06-04 03:52:00,
2013-06-03 22:00:00,62.2,58.3,30.25,East,90,0.0,1.6,87,0.00,,,0.65,meteobridge,2013-06-04 04:00:00,
2013-06-03 22:02:00,62.2,58.3,30.25,South,180,1.6,1.6,87,0.00,,,0.65,meteobridge,2013-06-04 04:02:00,
2013-06-03 22:04:00,62.1,58.1,30.25,SE,135,0.0,0.0,87,0.00,,,0.65,meteobridge,2013-06-04 04:04:00,
2013-06-03 22:06:00,62.1,58.1,30.25,SE,135,0.0,0.0,87,0.00,,,0.65,meteobridge,2013-06-04 04:06:00,
2013-06-03 22:11:00,61.9,57.9,30.24,NE,45,0.7,0.7,87,0.00,,,0.65,meteobridge,2013-06-04 04:11:00,
2013-06-03 22:17:00,61.9,57.9,30.24,East,90,0.7,0.7,87,0.00,,,0.65,meteobridge,2013-06-04 04:17:00,
2013-06-03 22:23:00,61.9,57.9,30.24,East,90,0.0,0.0,87,0.00,,,0.65,meteobridge,2013-06-04 04:23:00,
2013-06-03 22:30:00,61.7,57.7,30.24,East,90,0.0,0.0,87,0.00,,,0.65,meteobridge,2013-06-04 04:30:00,
2013-06-03 22:38:00,61.7,57.7,30.24,East,90,0.0,0.7,87,0.00,,,0.65,meteobridge,2013-06-04 04:38:00,
2013-06-03 22:44:00,61.7,57.7,30.24,SE,135,0.0,0.0,87,0.00,,,0.65,meteobridge,2013-06-04 04:44:00,
2013-06-03 22:51:00,61.5,57.6,30.24,SE,135,0.7,0.7,87,0.00,,,0.65,meteobridge,2013-06-04 04:51:00,
2013-06-03 22:57:00,61.5,57.6,30.24,SE,135,0.0,0.0,87,0.00,,,0.65,meteobridge,2013-06-04 04:57:00,
2013-06-03 23:04:00,61.7,58.1,30.24,East,90,0.0,0.0,88,0.00,,,0.65,meteobridge,2013-06-04 05:04:00,
2013-06-03 23:10:00,61.7,58.1,30.24,East,90,0.0,0.7,88,0.00,,,0.65,meteobridge,2013-06-04 05:10:00,
2013-06-03 23:16:00,61.9,58.3,30.24,East,90,0.0,0.7,88,0.00,,,0.65,meteobridge,2013-06-04 05:16:00,
2013-06-03 23:25:00,62.2,58.6,30.24,SE,135,0.0,0.7,88,0.00,,,0.65,meteobridge,2013-06-04 05:25:00,
2013-06-03 23:31:00,61.7,57.7,30.24,NE,45,1.6,1.6,87,0.00,,,0.65,meteobridge,2013-06-04 05:31:00,
2013-06-03 23:37:00,61.5,57.0,30.24,East,90,1.6,1.6,85,0.00,,,0.65,meteobridge,2013-06-04 05:37:00,
2013-06-03 23:44:00,61.2,56.7,30.24,SE,135,1.6,1.6,85,0.00,,,0.65,meteobridge,2013-06-04 05:44:00,
2013-06-03 23:50:00,61.0,56.5,30.23,NE,45,1.6,1.6,85,0.00,,,0.65,meteobridge,2013-06-04 05:50:00,
2013-06-03 23:56:00,61.0,56.8,30.22,East,90,1.6,1.6,86,0.00,,,0.65,meteobridge,2013-06-04 05:56:00,